Time;durP1;ratioP1;P1;durP2;ratioP2;P2;SDS_P1;SDS_P2;PMS_P1;PMS_P2;Temp;Humidity;BMP_temperature;BMP_pressure;BME280_temperature;BME280_humidity;BME280_pressure;Samples;Min_cycle;Max_cycle;Signal;HPM_P1;HPM_P2
2021/08/26 00:00:30;;;;;;;1.10;0.60;;;;;;;15.03;79.54;99145.80;1670428;84;21042;-63
2021/08/26 00:05:50;;;;;;;1.77;0.60;;;;;;;15.15;79.21;99142.47;1695769;84;21922;-62
2021/08/26 00:08:19;;;;;;;1.30;0.70;;;;;;;15.19;79.01;99133.87;1696003;84;21505;-62
2021/08/26 00:10:46;;;;;;;1.35;0.82;;;;;;;15.21;78.88;99136.53;1682756;84;21094;-63
2021/08/26 00:13:14;;;;;;;1.75;0.70;;;;;;;15.18;78.84;99142.65;1687616;85;21632;-63
2021/08/26 00:15:43;;;;;;;0.80;0.50;;;;;;;15.18;78.89;99141.84;1693691;83;21065;-62
2021/08/26 00:18:09;;;;;;;1.12;0.60;;;;;;;15.18;78.96;99144.58;1694231;84;21494;-62
2021/08/26 00:20:36;;;;;;;1.20;0.70;;;;;;;15.15;79.07;99141.92;1692441;83;21094;-62
2021/08/26 00:23:03;;;;;;;2.20;0.60;;;;;;;15.17;79.00;99139.66;1697346;84;21498;-63
2021/08/26 00:25:29;;;;;;;1.72;0.62;;;;;;;15.19;78.83;99140.72;1677854;84;21091;-62
2021/08/26 00:27:56;;;;;;;2.10;0.70;;;;;;;15.20;78.78;99140.39;1694736;83;21003;-62
2021/08/26 00:30:23;;;;;;;1.10;0.50;;;;;;;15.23;78.62;99139.75;1678784;85;21604;-62
2021/08/26 00:32:50;;;;;;;1.45;0.60;;;;;;;15.28;78.55;99140.18;1692503;85;21490;-62
2021/08/26 00:35:16;;;;;;;1.87;0.95;;;;;;;15.33;78.41;99140.86;1692597;83;21062;-63
2021/08/26 00:37:43;;;;;;;2.12;0.62;;;;;;;15.34;78.43;99136.97;1688720;85;21041;-63
2021/08/26 00:40:10;;;;;;;1.70;0.80;;;;;;;15.37;78.31;99140.45;1686703;85;21621;-62
2021/08/26 00:42:38;;;;;;;1.37;0.70;;;;;;;15.44;78.16;99138.05;1686486;84;21492;-62
2021/08/26 00:45:05;;;;;;;1.42;0.70;;;;;;;15.48;78.01;99135.48;1685193;84;21014;-63
2021/08/26 00:47:31;;;;;;;2.35;0.98;;;;;;;15.52;77.81;99131.02;1725764;82;21015;-62
2021/08/26 00:49:57;;;;;;;1.77;0.90;;;;;;;15.47;77.72;99131.14;1723359;83;21063;-62
2021/08/26 00:52:25;;;;;;;;;;;;;;;15.38;77.72;99128.92;1725966;83;20991;-62
2021/08/26 00:54:52;;;;;;;2.22;1.02;;;;;;;15.37;77.75;99130.06;1723286;83;20401;-62
2021/08/26 00:57:21;;;;;;;1.60;0.90;;;;;;;15.33;77.96;99133.20;1693000;82;21056;-62
2021/08/26 00:59:47;;;;;;;2.55;1.15;;;;;;;15.34;77.97;99126.56;1684128;84;21050;-62
2021/08/26 01:02:37;;;;;;;2.83;0.90;;;;;;;15.27;78.08;99135.81;1720821;83;21027;-62
2021/08/26 01:05:24;;;;;;;1.90;1.15;;;;;;;15.27;78.24;99134.44;1728558;81;21047;-63
2021/08/26 01:08:15;;;;;;;2.33;1.15;;;;;;;15.35;78.22;99135.05;1723185;83;21530;-62
2021/08/26 01:10:44;;;;;;;2.25;0.93;;;;;;;15.41;78.14;99131.84;1722864;83;21520;-62
2021/08/26 01:13:10;;;;;;;2.52;1.17;;;;;;;15.43;78.09;99127.42;1717728;83;20999;-62
2021/08/26 01:15:36;;;;;;;3.92;1.27;;;;;;;15.40;78.24;99134.91;1714275;83;21054;-62
2021/08/26 01:18:03;;;;;;;5.40;1.12;;;;;;;15.43;78.25;99122.75;1690405;84;21562;-62
2021/08/26 01:20:30;;;;;;;5.95;1.60;;;;;;;15.51;78.07;99130.79;1707285;82;21580;-62
2021/08/26 01:22:56;;;;;;;;;;;;;;;15.57;77.86;99128.69;1725709;83;21015;-62
2021/08/26 01:25:24;;;;;;;3.83;1.80;;;;;;;15.60;77.69;99132.16;1714539;82;20374;-62
2021/08/26 01:27:58;;;;;;;5.28;2.17;;;;;;;15.57;77.76;99131.44;1716591;83;21027;-62
2021/08/26 01:30:27;;;;;;;5.47;2.40;;;;;;;15.57;77.75;99137.73;1721044;83;21035;-64
2021/08/26 01:32:57;;;;;;;3.95;2.30;;;;;;;15.55;77.85;99138.63;1723176;83;21027;-62
2021/08/26 01:35:30;;;;;;;4.35;1.98;;;;;;;15.57;77.85;99134.18;1735475;81;21059;-62
2021/08/26 01:37:57;;;;;;;4.87;2.50;;;;;;;15.60;77.72;99132.16;1728703;82;20967;-62
2021/08/26 01:40:35;;;;;;;3.55;2.30;;;;;;;15.63;77.57;99132.89;1722497;81;21012;-62
2021/08/26 01:43:05;;;;;;;5.80;2.00;;;;;;;15.65;77.48;99139.70;1729113;82;20984;-62
2021/08/26 01:45:32;;;;;;;3.45;1.82;;;;;;;15.62;77.46;99130.74;1736648;81;21077;-62
2021/08/26 01:47:58;;;;;;;;;;;;;;;15.57;77.52;99117.72;1672867;85;21005;-62
2021/08/26 01:50:24;;;;;;;4.00;1.75;;;;;;;15.54;77.52;99112.31;1656843;86;20161;-63
2021/08/26 01:52:50;;;;;;;;;;;;;;;15.51;77.65;99113.52;1725839;82;21027;-62
2021/08/26 01:55:17;;;;;;;2.37;1.30;;;;;;;15.51;77.64;99108.84;1715229;82;20103;-62
2021/08/26 01:57:43;;;;;;;2.70;1.20;;;;;;;15.44;77.81;99112.00;1723458;82;21059;-62
2021/08/26 02:00:11;;;;;;;3.00;1.20;;;;;;;15.45;77.89;99109.51;1680777;85;21085;-63
2021/08/26 02:02:37;;;;;;;3.15;1.40;;;;;;;15.48;77.90;99108.05;1704837;83;20995;-62
2021/08/26 02:05:05;;;;;;;5.10;1.40;;;;;;;15.49;77.95;99099.30;1684335;85;21042;-62
2021/08/26 02:07:31;;;;;;;2.08;1.22;;;;;;;15.54;77.86;99101.34;1707085;83;21027;-62
2021/08/26 02:09:57;;;;;;;;;;;;;;;15.60;77.70;99096.50;1722530;83;21090;-62
2021/08/26 02:12:24;;;;;;;3.77;1.22;;;;;;;15.65;77.47;99086.77;1723002;82;20091;-62
2021/08/26 02:14:52;;;;;;;2.75;1.40;;;;;;;15.61;77.48;99089.34;1735007;81;21089;-62
2021/08/26 02:17:19;;;;;;;;;;;;;;;15.61;77.36;99078.36;1674173;84;21018;-62
2021/08/26 02:19:45;;;;;;;3.37;1.30;;;;;;;15.59;77.35;99090.80;1668857;84;20377;-63
2021/08/26 02:22:11;;;;;;;1.57;1.20;;;;;;;15.49;77.58;99086.95;1724281;82;20999;-62
2021/08/26 02:24:38;;;;;;;4.05;1.20;;;;;;;15.52;77.54;99090.45;1697271;82;21041;-62
2021/08/26 02:27:04;;;;;;;;;;;;;;;15.57;77.35;99093.84;1721889;82;20979;-62
2021/08/26 02:29:30;;;;;;;2.65;1.10;;;;;;;15.61;77.27;99096.20;1717687;82;20101;-62
2021/08/26 02:31:57;;;;;;;3.12;1.20;;;;;;;15.57;77.39;99092.47;1662203;85;21023;-62
2021/08/26 02:34:23;;;;;;;;;;;;;;;15.60;77.44;99097.88;1689144;84;21078;-62
2021/08/26 02:36:49;;;;;;;2.10;1.30;;;;;;;15.57;77.58;99094.40;1662466;86;20462;-62
2021/08/26 02:39:16;;;;;;;3.50;1.20;;;;;;;15.47;77.89;99096.05;1653081;86;21051;-62
2021/08/26 02:41:42;;;;;;;2.67;1.17;;;;;;;15.47;77.94;99098.79;1723401;82;20983;-63
2021/08/26 02:44:09;;;;;;;3.67;1.10;;;;;;;15.50;77.82;99096.81;1684168;85;21276;-63
2021/08/26 02:46:35;;;;;;;1.92;1.00;;;;;;;15.53;77.70;99098.91;1678894;85;20986;-63
2021/08/26 02:49:01;;;;;;;1.72;0.90;;;;;;;15.55;77.67;99093.92;1736187;81;21600;-62
2021/08/26 02:51:27;;;;;;;;;;;;;;;15.57;77.60;99095.77;1689142;84;21429;-63
2021/08/26 02:53:54;;;;;;;5.28;1.07;;;;;;;15.57;77.59;99092.47;1646691;86;20437;-62
2021/08/26 02:56:20;;;;;;;;;;;;;;;15.53;77.77;99091.48;1667483;85;20967;-63
2021/08/26 02:58:46;;;;;;;2.95;0.82;;;;;;;15.55;77.79;99098.04;1635756;86;20115;-63
2021/08/26 03:01:12;;;;;;;1.30;0.75;;;;;;;15.45;78.00;99096.35;1679180;84;21003;-63
2021/08/26 03:03:39;;;;;;;;;;;;;;;15.47;78.06;99097.42;1711270;83;21614;-62
2021/08/26 03:06:05;;;;;;;3.85;1.22;;;;;;;15.50;77.85;99088.58;1689318;84;20166;-63
2021/08/26 03:08:33;;;;;;;4.25;1.20;;;;;;;15.44;77.93;99092.80;1686087;84;21632;-62
2021/08/26 03:10:59;;;;;;;;;;;;;;;15.46;77.98;99093.86;1694380;84;20957;-62
2021/08/26 03:13:26;;;;;;;2.47;0.78;;;;;;;15.46;78.02;99089.75;1657088;86;20106;-63
2021/08/26 03:15:54;;;;;;;2.75;0.90;;;;;;;15.35;78.31;99095.28;1665453;84;21507;-62
2021/08/26 03:18:21;;;;;;;3.60;1.20;;;;;;;15.36;78.40;99096.91;1707831;83;21006;-63
2021/08/26 03:20:47;;;;;;;2.15;0.95;;;;;;;15.39;78.32;99092.16;1731431;82;21011;-63
2021/08/26 03:23:14;;;;;;;1.42;0.88;;;;;;;15.42;78.25;99084.66;1736780;82;21542;-62
2021/08/26 03:25:41;;;;;;;1.85;0.98;;;;;;;15.45;78.21;99082.64;1723132;82;20987;-62
2021/08/26 03:28:08;;;;;;;3.85;0.90;;;;;;;15.49;78.12;99088.33;1720275;83;20976;-62
2021/08/26 03:30:34;;;;;;;3.08;1.17;;;;;;;15.48;78.10;99086.11;1673769;84;21515;-62
2021/08/26 03:33:01;;;;;;;1.92;1.00;;;;;;;15.44;78.24;99085.94;1672107;84;21058;-62
2021/08/26 03:35:27;;;;;;;;;;;;;;;15.44;78.25;99093.39;1713527;82;21032;-62
2021/08/26 03:37:54;;;;;;;3.85;1.10;;;;;;;15.45;78.18;99086.75;1710723;83;20531;-63
2021/08/26 03:40:20;;;;;;;3.10;0.90;;;;;;;15.38;78.29;99083.11;1700156;84;21022;-62
2021/08/26 03:42:46;;;;;;;1.77;1.10;;;;;;;15.37;78.29;99083.45;1686705;84;21015;-63
2021/08/26 03:45:13;;;;;;;4.30;1.40;;;;;;;15.38;78.29;99088.59;1705627;83;21490;-62
2021/08/26 03:47:39;;;;;;;;;;;;;;;15.39;78.28;99092.97;1718760;82;20975;-62
2021/08/26 03:50:06;;;;;;;3.10;1.10;;;;;;;15.40;78.26;99091.84;1714238;82;20362;-63
2021/08/26 03:52:33;;;;;;;1.75;1.17;;;;;;;15.38;78.43;99094.08;1690540;84;21438;-62
2021/08/26 03:54:59;;;;;;;2.02;1.30;;;;;;;15.38;78.45;99087.78;1668715;85;21109;-62
2021/08/26 03:57:26;;;;;;;;;;;;;;;15.33;78.52;99087.95;1703102;82;21431;-62
2021/08/26 03:59:52;;;;;;;2.45;1.20;;;;;;;15.30;78.54;99090.74;1717730;82;20134;-62
2021/08/26 04:02:18;;;;;;;2.00;1.32;;;;;;;15.28;78.62;99085.34;1712903;83;21010;-63
2021/08/26 04:04:45;;;;;;;3.58;1.50;;;;;;;15.29;78.59;99084.22;1718493;83;21015;-62
2021/08/26 04:07:12;;;;;;;3.35;1.75;;;;;;;15.32;78.56;99091.81;1725492;82;21466;-63
2021/08/26 04:09:38;;;;;;;2.17;1.35;;;;;;;15.35;78.54;99086.50;1685996;84;21055;-62
2021/08/26 04:12:08;;;;;;;4.08;1.98;;;;;;;15.38;78.48;99084.48;1683780;83;21449;-62
2021/08/26 04:14:34;;;;;;;2.70;1.85;;;;;;;15.41;78.55;99079.73;1667772;85;20999;-62
2021/08/26 04:17:01;;;;;;;3.60;2.17;;;;;;;15.46;78.50;99080.15;1730925;82;20978;-62
2021/08/26 04:19:27;;;;;;;4.08;2.50;;;;;;;15.48;78.47;99085.33;1705703;82;21023;-62
2021/08/26 04:21:53;;;;;;;3.55;1.82;;;;;;;15.47;78.58;99083.70;1687760;85;21466;-63
2021/08/26 04:24:20;;;;;;;;;;;;;;;15.47;78.69;99080.96;1692999;85;21050;-62
2021/08/26 04:26:47;;;;;;;2.72;1.62;;;;;;;15.53;78.72;99074.22;1669310;86;20112;-63
2021/08/26 04:29:13;;;;;;;;;;;;;;;15.52;78.86;99069.88;1677898;85;21115;-63
2021/08/26 04:31:40;;;;;;;3.07;1.40;;;;;;;15.61;78.93;99072.06;1677757;85;20735;-63
2021/08/26 04:34:06;;;;;;;;;;;;;;;15.67;79.08;99074.89;1707287;83;21015;-62
2021/08/26 04:36:33;;;;;;;2.60;1.75;;;;;;;15.79;78.97;99072.33;1719131;82;20122;-63
2021/08/26 04:38:59;;;;;;;3.00;1.60;;;;;;;15.80;79.02;99066.50;1710052;82;21833;-62
2021/08/26 04:41:26;;;;;;;4.12;1.65;;;;;;;15.85;79.00;99063.61;1716468;83;20991;-62
2021/08/26 04:43:52;;;;;;;2.37;1.45;;;;;;;15.96;78.70;99072.89;1684240;85;21557;-64
2021/08/26 04:46:19;;;;;;;4.55;1.70;;;;;;;16.04;78.24;99069.34;1727661;82;21088;-65
2021/08/26 04:48:45;;;;;;;2.92;1.52;;;;;;;16.11;77.98;99069.67;1734601;82;21019;-63
2021/08/26 04:51:12;;;;;;;;;;;;;;;16.19;77.86;99071.02;1729959;82;20979;-64
2021/08/26 04:53:38;;;;;;;14.05;7.25;;;;;;;16.26;77.53;99080.16;1713001;83;20099;-63
2021/08/26 04:56:05;;;;;;;7.87;5.05;;;;;;;16.24;77.36;99075.55;1720541;82;20964;-63
2021/08/26 04:58:31;;;;;;;3.83;2.55;;;;;;;16.22;77.26;99075.89;1682698;85;20998;-63
2021/08/26 05:00:57;;;;;;;;;;;;;;;16.22;77.20;99077.26;1679669;84;21600;-63
2021/08/26 05:03:26;;;;;;;2.00;1.40;;;;;;;16.25;76.99;99080.73;1658571;86;20119;-63
2021/08/26 05:05:52;;;;;;;2.72;1.45;;;;;;;16.26;76.99;99080.16;1726688;82;21571;-63
2021/08/26 05:08:19;;;;;;;1.95;1.40;;;;;;;16.31;76.83;99073.92;1682510;84;21042;-63
2021/08/26 05:10:46;;;;;;;2.83;1.85;;;;;;;16.38;76.62;99070.68;1724271;82;21023;-63
2021/08/26 05:13:12;;;;;;;3.20;1.80;;;;;;;16.40;76.37;99078.83;1706880;83;21100;-63
2021/08/26 05:15:39;;;;;;;4.75;2.22;;;;;;;16.40;76.24;99069.21;1723442;82;21050;-64
2021/08/26 05:18:05;;;;;;;3.80;1.77;;;;;;;16.37;76.19;99073.17;1742363;82;20962;-63
2021/08/26 05:20:32;;;;;;;5.87;2.60;;;;;;;16.37;76.19;99069.05;1727362;83;21054;-61
2021/08/26 05:22:58;;;;;;;3.10;1.90;;;;;;;16.40;75.95;99073.33;1727077;83;21049;-62
2021/08/26 05:25:26;;;;;;;3.12;1.50;;;;;;;16.43;75.92;99073.27;1664176;85;21038;-62
2021/08/26 05:27:53;;;;;;;2.35;1.72;;;;;;;16.45;75.81;99073.73;1723790;82;20955;-63
2021/08/26 05:30:19;;;;;;;2.60;1.70;;;;;;;16.45;75.65;99069.61;1738580;82;21026;-63
2021/08/26 05:32:46;;;;;;;;;;;;;;;16.41;75.61;99076.33;1747483;82;21479;-63
2021/08/26 05:35:12;;;;;;;3.80;1.60;;;;;;;16.40;75.63;99073.33;1747684;81;20107;-63
2021/08/26 05:37:40;;;;;;;4.25;1.77;;;;;;;16.40;75.84;99084.31;1747835;82;21427;-63
2021/08/26 05:40:08;;;;;;;3.00;2.20;;;;;;;16.46;75.77;99074.55;1737474;81;20988;-63
2021/08/26 05:42:35;;;;;;;2.98;2.00;;;;;;;16.51;75.62;99067.52;1735970;82;20964;-63
2021/08/26 05:45:01;;;;;;;3.27;1.90;;;;;;;16.52;75.58;99074.05;1685853;85;21042;-63
2021/08/26 05:47:28;;;;;;;4.25;1.75;;;;;;;16.53;75.50;99069.36;1728432;82;20964;-63
2021/08/26 05:49:56;;;;;;;3.08;2.00;;;;;;;16.52;75.49;99064.98;1737478;81;21008;-63
2021/08/26 05:53:24;;;;;;;3.00;1.98;;;;;;;16.65;75.35;99055.20;1797396;79;22869;-62
2021/08/26 05:55:51;;;;;;;3.90;2.40;;;;;;;16.65;75.24;99062.67;1727342;83;21042;-62
2021/08/26 05:58:17;;;;;;;3.52;2.65;;;;;;;16.68;75.25;99060.63;1741560;81;21026;-62
2021/08/26 06:00:43;;;;;;;;;;;;;;;16.72;74.87;99059.62;1762104;81;21632;-62
2021/08/26 06:03:10;;;;;;;2.85;1.92;;;;;;;16.74;74.42;99068.37;1761023;81;20109;-63
2021/08/26 06:05:36;;;;;;;;;;;;;;;16.72;74.59;99061.59;1763834;81;21054;-62
2021/08/26 06:08:03;;;;;;;1.92;1.42;;;;;;;16.80;74.64;99064.86;1760888;81;20409;-62
2021/08/26 06:10:29;;;;;;;2.37;1.80;;;;;;;16.79;74.34;99071.52;1761450;81;21046;-61
2021/08/26 06:12:56;;;;;;;3.60;2.20;;;;;;;16.79;74.17;99062.67;1760487;81;20994;-64
2021/08/26 06:15:22;;;;;;;;;;;;;;;16.74;73.48;99064.24;1763990;81;21031;-62
2021/08/26 06:17:48;;;;;;;2.40;1.80;;;;;;;16.66;73.73;99058.20;1761073;81;20118;-62
2021/08/26 06:20:16;;;;;;;;;;;;;;;16.66;74.01;99060.14;1763081;80;21038;-62
2021/08/26 06:22:42;;;;;;;2.02;1.62;;;;;;;16.71;73.77;99062.72;1753271;80;20106;-62
2021/08/26 06:25:10;;;;;;;2.77;2.10;;;;;;;16.64;73.96;99063.80;1756943;81;21085;-64
2021/08/26 06:27:37;;;;;;;3.25;1.90;;;;;;;16.64;73.93;99065.17;1729297;80;21580;-62
2021/08/26 06:30:05;;;;;;;3.00;2.17;;;;;;;16.67;73.78;99073.56;1749344;80;21045;-59
2021/08/26 06:32:33;;;;;;;2.67;1.62;;;;;;;16.70;73.47;99071.53;1759228;81;21010;-61
2021/08/26 06:35:02;;;;;;;2.85;1.80;;;;;;;16.71;73.47;99075.90;1757181;81;21002;-63
2021/08/26 06:37:29;;;;;;;2.70;1.90;;;;;;;16.75;73.50;99077.42;1750352;81;21539;-64
2021/08/26 06:39:57;;;;;;;3.20;2.35;;;;;;;16.77;73.53;99073.20;1750916;82;21015;-63
2021/08/26 06:42:24;;;;;;;2.55;1.87;;;;;;;16.79;73.87;99081.91;1749431;81;21501;-65
2021/08/26 06:44:50;;;;;;;4.40;2.17;;;;;;;16.83;73.81;99086.19;1753224;81;21010;-63
2021/08/26 06:47:16;;;;;;;;;;;;;;;16.87;73.83;99094.83;1761472;81;20983;-64
2021/08/26 06:49:43;;;;;;;2.98;1.90;;;;;;;16.91;74.04;99095.80;1761143;81;20405;-63
2021/08/26 06:52:09;;;;;;;;;;;;;;;16.86;74.04;99101.45;1756361;81;21006;-62
2021/08/26 06:54:37;;;;;;;3.15;1.82;;;;;;;16.87;74.31;99103.08;1747509;82;20130;-63
2021/08/26 06:57:05;;;;;;;2.67;1.57;;;;;;;16.84;74.53;99099.62;1729240;82;20968;-62
2021/08/26 06:59:31;;;;;;;2.22;1.72;;;;;;;16.86;74.70;99100.67;1719983;82;21543;-63
2021/08/26 07:01:58;;;;;;;3.40;1.90;;;;;;;16.83;74.73;99099.37;1732376;82;21021;-62
2021/08/26 07:04:24;;;;;;;3.62;1.50;;;;;;;16.81;74.76;99107.71;1716370;83;21642;-63
2021/08/26 07:06:55;;;;;;;3.35;1.60;;;;;;;16.82;74.89;99112.89;1735603;82;21010;-62
2021/08/26 07:09:22;;;;;;;3.60;1.82;;;;;;;16.84;74.97;99112.55;1739957;82;21035;-62
2021/08/26 07:11:49;;;;;;;3.33;1.67;;;;;;;16.86;74.93;99115.80;1742315;82;20991;-64
2021/08/26 07:14:16;;;;;;;2.60;1.65;;;;;;;16.80;74.90;99112.40;1741798;81;21007;-62
2021/08/26 07:16:43;;;;;;;3.37;1.70;;;;;;;16.75;74.94;99114.53;1747379;82;21022;-63
2021/08/26 07:19:09;;;;;;;5.97;1.98;;;;;;;16.71;75.31;99114.94;1747540;81;21490;-63
2021/08/26 07:21:36;;;;;;;2.92;1.70;;;;;;;16.68;75.46;99113.66;1746715;82;20999;-64
2021/08/26 07:24:03;;;;;;;3.45;1.60;;;;;;;16.61;75.49;99112.54;1746103;82;21057;-62
2021/08/26 07:26:30;;;;;;;2.77;1.57;;;;;;;16.49;75.55;99112.35;1745588;82;21455;-61
2021/08/26 07:28:56;;;;;;;;;;;;;;;16.43;75.86;99113.09;1750094;81;21007;-63
2021/08/26 07:31:22;;;;;;;4.17;1.75;;;;;;;16.42;75.92;99108.17;1710494;82;20114;-62
2021/08/26 07:33:49;;;;;;;;;;;;;;;16.34;76.08;99108.97;1713259;82;21658;-62
2021/08/26 07:36:15;;;;;;;7.12;1.77;;;;;;;16.33;76.28;99105.98;1739191;82;20138;-61
2021/08/26 07:38:42;;;;;;;3.85;1.82;;;;;;;16.28;76.47;99114.41;1740975;82;20983;-62
2021/08/26 07:41:08;;;;;;;;;;;;;;;16.31;76.72;99108.26;1736163;82;20932;-62
2021/08/26 07:43:36;;;;;;;5.85;2.72;;;;;;;16.36;76.94;99112.22;1740965;82;20426;-62
2021/08/26 07:46:03;;;;;;;3.83;2.17;;;;;;;16.35;77.11;99113.91;1746801;82;20959;-62
2021/08/26 07:48:32;;;;;;;4.67;2.30;;;;;;;16.37;77.07;99111.63;1739547;82;20984;-62
2021/08/26 07:51:03;;;;;;;3.70;2.25;;;;;;;16.35;77.08;99126.27;1738053;82;20959;-62
2021/08/26 07:53:26;;;;;;;2.72;1.85;;;;;;;16.34;76.94;99123.27;1737185;82;21003;-62
2021/08/26 07:55:53;;;;;;;2.17;1.62;;;;;;;16.31;76.73;99123.36;1745465;82;20999;-62
2021/08/26 07:58:20;;;;;;;2.67;2.00;;;;;;;16.30;76.61;99110.75;1746902;82;21514;-61
2021/08/26 08:00:46;;;;;;;;;;;;;;;16.31;76.73;99112.38;1750125;81;21653;-62
2021/08/26 08:03:13;;;;;;;2.58;1.62;;;;;;;16.34;76.74;99111.72;1745768;82;20385;-61
2021/08/26 08:05:39;;;;;;;2.72;1.77;;;;;;;16.32;76.84;99109.06;1737598;82;21028;-61
2021/08/26 08:08:05;;;;;;;3.22;1.98;;;;;;;16.36;76.83;99113.59;1737628;82;20992;-61
2021/08/26 08:10:32;;;;;;;;;;;;;;;16.44;76.93;99116.06;1740389;82;21035;-61
2021/08/26 08:12:58;;;;;;;2.80;1.90;;;;;;;16.49;76.76;99113.73;1710313;82;20438;-61
2021/08/26 08:15:26;;;;;;;4.33;1.72;;;;;;;16.39;76.97;99114.31;1745723;82;21079;-62
2021/08/26 08:17:52;;;;;;;;;;;;;;;16.39;76.86;99114.31;1750379;82;21022;-61
2021/08/26 08:20:19;;;;;;;2.50;1.55;;;;;;;16.41;76.91;99108.48;1747639;81;20103;-62
2021/08/26 08:22:45;;;;;;;;;;;;;;;16.39;77.00;99112.13;1750369;82;20948;-61
2021/08/26 08:25:12;;;;;;;4.03;1.80;;;;;;;16.39;76.97;99111.57;1747592;82;20093;-61
2021/08/26 08:27:38;;;;;;;;;;;;;;;16.34;77.10;99115.84;1750300;82;21038;-61
2021/08/26 08:30:05;;;;;;;3.30;1.67;;;;;;;16.37;77.00;99122.06;1747458;82;20119;-62
2021/08/26 08:32:32;;;;;;;2.70;2.00;;;;;;;16.35;77.09;99119.40;1750265;82;20995;-61
2021/08/26 08:34:58;;;;;;;;;;;;;;;16.39;77.14;99113.50;1741891;82;21039;-61
2021/08/26 08:37:25;;;;;;;4.05;1.92;;;;;;;16.44;77.15;99120.19;1738545;82;20151;-61
2021/08/26 08:39:51;;;;;;;3.98;2.55;;;;;;;16.40;77.32;99115.91;1737621;82;21075;-61
2021/08/26 08:42:21;;;;;;;;;;;;;;;16.43;77.28;99127.65;1740494;82;21030;-61
2021/08/26 08:44:49;;;;;;;2.90;1.80;;;;;;;16.48;77.39;99119.78;1737612;82;20091;-61
2021/08/26 08:47:15;;;;;;;3.12;1.67;;;;;;;16.47;77.50;99124.25;1740048;82;21004;-61
2021/08/26 08:49:45;;;;;;;2.15;1.60;;;;;;;16.54;77.65;99123.19;1747273;81;21374;-61
2021/08/26 08:52:11;;;;;;;3.08;1.57;;;;;;;16.62;77.56;99127.30;1747537;82;20979;-61
2021/08/26 08:54:39;;;;;;;2.02;1.60;;;;;;;16.69;77.30;99117.19;1747391;81;21023;-61
2021/08/26 08:57:06;;;;;;;;;;;;;;;16.72;77.06;99115.97;1750178;82;21439;-61
2021/08/26 08:59:33;;;;;;;2.22;1.50;;;;;;;16.77;77.14;99124.05;1747518;82;20102;-61
2021/08/26 09:02:00;;;;;;;3.60;1.82;;;;;;;16.75;77.18;99110.41;1747615;82;21460;-61
2021/08/26 09:04:26;;;;;;;;;;;;;;;16.80;77.16;99114.34;1749886;82;21015;-61
2021/08/26 09:06:54;;;;;;;2.47;1.62;;;;;;;16.82;77.03;99110.70;1747123;82;20409;-61
2021/08/26 09:09:21;;;;;;;2.17;1.52;;;;;;;16.74;77.31;99112.34;1747368;81;21011;-61
2021/08/26 09:11:53;;;;;;;;;;;;;;;16.74;77.18;99101.34;1750260;82;20999;-61
2021/08/26 09:14:21;;;;;;;3.55;1.62;;;;;;;16.79;77.21;99103.91;1747684;81;20102;-61
2021/08/26 09:16:50;;;;;;;1.90;1.70;;;;;;;16.83;77.18;99105.43;1747695;82;20991;-62
2021/08/26 09:19:30;;;;;;;3.25;1.45;;;;;;;16.86;76.85;99108.33;1747288;82;21031;-61
2021/08/26 09:21:58;;;;;;;2.15;1.47;;;;;;;16.89;76.65;99102.20;1747422;82;20979;-61
2021/08/26 09:24:49;;;;;;;3.30;2.10;;;;;;;16.93;76.50;99100.16;1747582;82;21636;-62
2021/08/26 09:27:38;;;;;;;3.45;2.45;;;;;;;16.89;76.32;99102.20;1747536;82;20963;-61
2021/08/26 09:30:16;;;;;;;3.10;2.20;;;;;;;16.83;76.40;99106.24;1747690;81;21538;-61
2021/08/26 09:32:52;;;;;;;5.55;2.40;;;;;;;16.82;76.37;99096.41;1747506;82;21498;-61
2021/08/26 09:35:20;;;;;;;4.90;2.50;;;;;;;16.85;76.29;99105.36;1746354;82;21031;-61
2021/08/26 09:37:53;;;;;;;2.98;2.10;;;;;;;16.89;76.30;99112.39;1747569;82;21018;-61
2021/08/26 09:40:29;;;;;;;2.80;1.98;;;;;;;16.95;76.20;99106.94;1747295;82;21062;-61
2021/08/26 09:43:02;;;;;;;1.90;1.50;;;;;;;16.99;75.91;99103.78;1747629;82;21656;-61
2021/08/26 09:45:32;;;;;;;4.33;2.47;;;;;;;17.03;75.93;99099.80;1747006;82;21050;-61
2021/08/26 09:48:09;;;;;;;2.70;2.08;;;;;;;17.06;75.71;99100.52;1741441;82;21007;-60
2021/08/26 09:50:48;;;;;;;3.45;2.30;;;;;;;17.07;75.58;99102.95;1737791;82;21035;-61
2021/08/26 09:53:21;;;;;;;2.47;1.90;;;;;;;17.01;75.46;99101.49;1742931;82;21031;-61
2021/08/26 09:56:01;;;;;;;2.47;1.75;;;;;;;16.96;75.34;99105.81;1746871;81;20995;-62
2021/08/26 09:58:30;;;;;;;3.10;2.33;;;;;;;16.96;75.46;99107.19;1738107;82;20984;-63
2021/08/26 10:01:14;;;;;;;3.17;2.12;;;;;;;16.99;75.59;99110.66;1742308;82;20971;-63
2021/08/26 10:03:41;;;;;;;2.75;2.15;;;;;;;17.02;75.53;99094.05;1743219;82;21040;-65
2021/08/26 10:06:10;;;;;;;3.00;2.20;;;;;;;17.03;75.36;99098.42;1730081;82;21495;-64
2021/08/26 10:08:42;;;;;;;3.33;2.47;;;;;;;17.05;75.35;99100.27;1721858;82;21002;-63
2021/08/26 10:11:09;;;;;;;3.62;2.20;;;;;;;17.08;75.35;99097.66;1743317;82;20952;-65
2021/08/26 10:13:37;;;;;;;2.87;1.85;;;;;;;17.07;75.50;99104.32;1752384;81;21007;-63
2021/08/26 10:16:04;;;;;;;4.15;1.87;;;;;;;17.09;75.41;99110.28;1748878;82;20975;-65
2021/08/26 10:18:30;;;;;;;3.00;2.20;;;;;;;17.11;75.25;99113.50;1743134;82;21018;-63
2021/08/26 10:20:56;;;;;;;4.17;1.85;;;;;;;17.09;75.34;99104.78;1744780;82;20929;-63
2021/08/26 10:23:24;;;;;;;2.33;1.52;;;;;;;17.08;75.52;99104.54;1729866;81;21522;-64
2021/08/26 10:25:51;;;;;;;2.90;1.77;;;;;;;17.02;75.28;99094.86;1750751;82;20975;-65
2021/08/26 10:28:17;;;;;;;2.87;1.98;;;;;;;17.02;75.42;99087.99;1748526;82;21015;-64
2021/08/26 10:30:43;;;;;;;2.70;1.98;;;;;;;17.02;75.29;99092.12;1741604;82;21639;-64
2021/08/26 10:33:12;;;;;;;;;;;;;;;16.99;75.16;99092.78;1734340;82;20979;-64
2021/08/26 10:35:58;;;;;;;2.25;1.62;;;;;;;16.96;75.19;99090.69;1737756;82;20115;-65
2021/08/26 10:38:30;;;;;;;2.40;1.60;;;;;;;16.88;75.51;99088.77;1724606;82;21106;-65
2021/08/26 10:40:58;;;;;;;2.87;1.70;;;;;;;16.89;75.52;99090.39;1736372;82;21448;-65
2021/08/26 10:43:38;;;;;;;3.65;1.90;;;;;;;16.85;75.50;99092.99;1738325;82;21549;-65
2021/08/26 10:46:07;;;;;;;2.27;1.80;;;;;;;16.89;75.70;99089.83;1732529;82;21490;-65
2021/08/26 10:48:34;;;;;;;2.40;1.80;;;;;;;16.96;75.50;99086.56;1727098;82;20985;-65
2021/08/26 10:51:16;;;;;;;2.37;1.80;;;;;;;17.02;75.38;99089.37;1736363;82;21480;-65
2021/08/26 10:53:46;;;;;;;2.42;1.55;;;;;;;17.04;75.25;99090.42;1736733;82;21004;-65
2021/08/26 10:56:26;;;;;;;3.17;1.52;;;;;;;17.04;74.79;99079.42;1736228;82;21031;-65
2021/08/26 10:58:54;;;;;;;2.12;1.75;;;;;;;17.01;74.96;99091.87;1737939;82;21030;-65
2021/08/26 11:01:34;;;;;;;2.00;1.50;;;;;;;17.02;74.94;99091.30;1742076;82;20975;-65
2021/08/26 11:04:22;;;;;;;2.25;1.52;;;;;;;17.02;74.75;99088.55;1741448;82;21029;-64
2021/08/26 11:06:49;;;;;;;2.98;1.70;;;;;;;16.98;74.74;99084.84;1719481;82;21384;-64
2021/08/26 11:09:26;;;;;;;3.10;2.05;;;;;;;16.98;75.01;99087.59;1728255;82;21006;-65
2021/08/26 11:11:58;;;;;;;4.03;2.65;;;;;;;17.03;74.95;99088.80;1726356;82;21037;-64
2021/08/26 11:14:25;;;;;;;3.15;2.10;;;;;;;17.09;74.73;99092.41;1722133;82;21606;-65
2021/08/26 11:16:59;;;;;;;3.83;2.25;;;;;;;17.14;74.63;99092.23;1737376;82;20988;-64
2021/08/26 11:19:36;;;;;;;3.47;2.12;;;;;;;17.18;74.48;99097.89;1730721;82;21496;-63
2021/08/26 11:22:06;;;;;;;3.70;2.47;;;;;;;17.20;74.44;99084.59;1733291;81;21452;-63
2021/08/26 11:24:39;;;;;;;3.80;2.70;;;;;;;17.25;74.45;99080.30;1724141;82;21733;-64
2021/08/26 11:27:27;;;;;;;3.52;2.25;;;;;;;17.23;74.68;99077.87;1739606;82;21075;-64
2021/08/26 11:29:54;;;;;;;2.72;2.12;;;;;;;17.26;75.03;99080.52;1744804;82;21905;-64
2021/08/26 11:32:21;;;;;;;3.15;2.17;;;;;;;17.30;75.10;99081.47;1738574;82;21035;-66
2021/08/26 11:34:54;;;;;;;2.62;2.00;;;;;;;17.30;75.10;99078.16;1735574;82;21031;-65
2021/08/26 11:37:32;;;;;;;2.50;1.90;;;;;;;17.24;75.05;99075.92;1735268;82;21472;-65
2021/08/26 11:40:12;;;;;;;2.70;1.90;;;;;;;17.21;75.17;99083.47;1737776;82;21066;-66
2021/08/26 11:42:46;;;;;;;3.15;2.08;;;;;;;17.21;75.34;99088.97;1730068;82;20972;-66
2021/08/26 11:45:25;;;;;;;3.60;2.30;;;;;;;17.23;75.27;99075.68;1728786;82;21522;-66
2021/08/26 11:47:55;;;;;;;3.10;2.05;;;;;;;17.17;75.05;99074.27;1716955;82;20959;-65
2021/08/26 11:50:28;;;;;;;2.47;1.80;;;;;;;17.04;74.99;99083.55;1738500;81;21109;-66
2021/08/26 11:52:57;;;;;;;3.42;1.80;;;;;;;16.89;75.29;99080.21;1741982;82;20948;-65